sensor_id;sensor_type;location;lat;lon;timestamp;pressure;altitude;pressure_sealevel;temperature;humidity
44297;BME280;51842;47.450;8.654;2023-05-20T00:00:44;95480.56;;;10.10;93.18
44297;BME280;51842;47.450;8.654;2023-05-20T00:03:14;95485.09;;;10.10;93.10
44297;BME280;51842;47.450;8.654;2023-05-20T00:05:40;95490.41;;;10.10;93.15
44297;BME280;51842;47.450;8.654;2023-05-20T00:08:06;95487.75;;;10.10;93.14
44297;BME280;51842;47.450;8.654;2023-05-20T00:10:34;95491.47;;;10.09;93.45
44297;BME280;51842;47.450;8.654;2023-05-20T00:13:01;95490.94;;;10.07;94.58
44297;BME280;51842;47.450;8.654;2023-05-20T00:15:27;95492.53;;;10.08;94.11
44297;BME280;51842;47.450;8.654;2023-05-20T00:17:54;95490.16;;;10.06;94.18
44297;BME280;51842;47.450;8.654;2023-05-20T00:20:20;95486.66;;;10.06;93.84
44297;BME280;51842;47.450;8.654;2023-05-20T00:22:46;95484.00;;;10.06;93.88
44297;BME280;51842;47.450;8.654;2023-05-20T00:25:11;95485.88;;;10.05;94.95
44297;BME280;51842;47.450;8.654;2023-05-20T00:27:42;95481.09;;;10.07;95.52
44297;BME280;51842;47.450;8.654;2023-05-20T00:30:09;95478.97;;;10.09;95.34
44297;BME280;51842;47.450;8.654;2023-05-20T00:32:35;95478.16;;;10.09;95.15
44297;BME280;51842;47.450;8.654;2023-05-20T00:35:02;95472.56;;;10.05;96.15
44297;BME280;51842;47.450;8.654;2023-05-20T00:37:28;95477.38;;;10.08;96.01
44297;BME280;51842;47.450;8.654;2023-05-20T00:39:54;95474.69;;;10.08;96.33
44297;BME280;51842;47.450;8.654;2023-05-20T00:42:25;95462.47;;;10.07;96.08
44297;BME280;51842;47.450;8.654;2023-05-20T00:44:53;95477.88;;;10.05;96.15
44297;BME280;51842;47.450;8.654;2023-05-20T00:47:25;95476.03;;;10.01;96.63
44297;BME280;51842;47.450;8.654;2023-05-20T00:49:53;95470.16;;;9.93;97.18
44297;BME280;51842;47.450;8.654;2023-05-20T00:52:20;95463.22;;;9.87;97.78
44297;BME280;51842;47.450;8.654;2023-05-20T00:54:47;95467.19;;;9.80;98.13
44297;BME280;51842;47.450;8.654;2023-05-20T00:57:14;95458.13;;;9.65;98.88
44297;BME280;51842;47.450;8.654;2023-05-20T00:59:41;95455.47;;;9.70;98.80
44297;BME280;51842;47.450;8.654;2023-05-20T01:02:07;95455.19;;;9.67;99.03
44297;BME280;51842;47.450;8.654;2023-05-20T01:04:33;95452.50;;;9.62;98.72
44297;BME280;51842;47.450;8.654;2023-05-20T01:07:02;95459.41;;;9.58;98.55
44297;BME280;51842;47.450;8.654;2023-05-20T01:09:30;95454.34;;;9.51;98.42
44297;BME280;51842;47.450;8.654;2023-05-20T01:12:11;95453.97;;;9.27;99.71
44297;BME280;51842;47.450;8.654;2023-05-20T01:14:48;95451.03;;;9.18;100.00
44297;BME280;51842;47.450;8.654;2023-05-20T01:17:15;95440.34;;;9.13;99.76
44297;BME280;51842;47.450;8.654;2023-05-20T01:19:46;95436.63;;;9.09;99.49
44297;BME280;51842;47.450;8.654;2023-05-20T01:22:14;95432.34;;;9.03;99.78
44297;BME280;51842;47.450;8.654;2023-05-20T01:24:45;95436.25;;;8.95;99.87
44297;BME280;51842;47.450;8.654;2023-05-20T01:27:18;95441.53;;;8.85;100.00
44297;BME280;51842;47.450;8.654;2023-05-20T01:29:47;95437.44;;;8.67;100.00
44297;BME280;51842;47.450;8.654;2023-05-20T01:32:33;95431.75;;;8.53;100.00
44297;BME280;51842;47.450;8.654;2023-05-20T01:35:02;95426.97;;;8.50;100.00
44297;BME280;51842;47.450;8.654;2023-05-20T01:37:30;95427.00;;;8.55;100.00
44297;BME280;51842;47.450;8.654;2023-05-20T01:39:58;95417.97;;;8.56;100.00
44297;BME280;51842;47.450;8.654;2023-05-20T01:42:26;95419.56;;;8.52;100.00
44297;BME280;51842;47.450;8.654;2023-05-20T01:44:53;95428.78;;;8.45;100.00
44297;BME280;51842;47.450;8.654;2023-05-20T01:47:19;95429.00;;;8.38;100.00
44297;BME280;51842;47.450;8.654;2023-05-20T01:49:44;95428.63;;;8.29;100.00
44297;BME280;51842;47.450;8.654;2023-05-20T01:52:14;95435.72;;;8.19;100.00
44297;BME280;51842;47.450;8.654;2023-05-20T01:54:39;95434.06;;;8.13;100.00
44297;BME280;51842;47.450;8.654;2023-05-20T01:57:05;95433.47;;;8.05;100.00
44297;BME280;51842;47.450;8.654;2023-05-20T01:59:31;95433.88;;;7.92;100.00
44297;BME280;51842;47.450;8.654;2023-05-20T02:01:56;95430.06;;;7.83;100.00
44297;BME280;51842;47.450;8.654;2023-05-20T02:04:22;95419.94;;;7.75;100.00
44297;BME280;51842;47.450;8.654;2023-05-20T02:06:48;95411.84;;;7.64;100.00
44297;BME280;51842;47.450;8.654;2023-05-20T02:09:14;95399.38;;;7.60;100.00
44297;BME280;51842;47.450;8.654;2023-05-20T02:11:40;95401.44;;;7.58;100.00
44297;BME280;51842;47.450;8.654;2023-05-20T02:14:05;95399.38;;;7.60;100.00
44297;BME280;51842;47.450;8.654;2023-05-20T02:16:31;95397.50;;;7.60;100.00
44297;BME280;51842;47.450;8.654;2023-05-20T02:18:57;95398.56;;;7.59;100.00
44297;BME280;51842;47.450;8.654;2023-05-20T02:21:24;95392.47;;;7.59;100.00
44297;BME280;51842;47.450;8.654;2023-05-20T02:23:50;95389.03;;;7.58;100.00
44297;BME280;51842;47.450;8.654;2023-05-20T02:26:16;95398.00;;;7.57;100.00
44297;BME280;51842;47.450;8.654;2023-05-20T02:28:42;95401.72;;;7.56;100.00
44297;BME280;51842;47.450;8.654;2023-05-20T02:31:12;95411.25;;;7.57;100.00
44297;BME280;51842;47.450;8.654;2023-05-20T02:33:37;95400.34;;;7.54;100.00
44297;BME280;51842;47.450;8.654;2023-05-20T02:36:04;95399.50;;;7.48;100.00
44297;BME280;51842;47.450;8.654;2023-05-20T02:38:30;95392.03;;;7.45;100.00
44297;BME280;51842;47.450;8.654;2023-05-20T02:40:57;95399.78;;;7.52;100.00
44297;BME280;51842;47.450;8.654;2023-05-20T02:43:24;95402.94;;;7.49;100.00
44297;BME280;51842;47.450;8.654;2023-05-20T02:45:50;95394.97;;;7.44;100.00
44297;BME280;51842;47.450;8.654;2023-05-20T02:48:16;95402.41;;;7.47;100.00
44297;BME280;51842;47.450;8.654;2023-05-20T02:50:42;95409.56;;;7.46;100.00
44297;BME280;51842;47.450;8.654;2023-05-20T02:53:09;95397.84;;;7.42;100.00
44297;BME280;51842;47.450;8.654;2023-05-20T02:55:35;95395.44;;;7.40;100.00
44297;BME280;51842;47.450;8.654;2023-05-20T02:58:01;95399.66;;;7.36;100.00
44297;BME280;51842;47.450;8.654;2023-05-20T03:00:27;95417.66;;;7.34;100.00
44297;BME280;51842;47.450;8.654;2023-05-20T03:02:55;95409.63;;;7.29;100.00
44297;BME280;51842;47.450;8.654;2023-05-20T03:05:21;95412.72;;;7.21;100.00
44297;BME280;51842;47.450;8.654;2023-05-20T03:07:47;95404.22;;;7.19;100.00
44297;BME280;51842;47.450;8.654;2023-05-20T03:10:14;95403.47;;;7.24;100.00
44297;BME280;51842;47.450;8.654;2023-05-20T03:12:40;95403.16;;;7.20;100.00
44297;BME280;51842;47.450;8.654;2023-05-20T03:15:07;95399.66;;;7.14;100.00
44297;BME280;51842;47.450;8.654;2023-05-20T03:17:33;95397.44;;;7.06;100.00
44297;BME280;51842;47.450;8.654;2023-05-20T03:20:00;95387.09;;;7.05;100.00
44297;BME280;51842;47.450;8.654;2023-05-20T03:22:26;95393.19;;;7.05;100.00
44297;BME280;51842;47.450;8.654;2023-05-20T03:24:51;95394.50;;;7.03;100.00
44297;BME280;51842;47.450;8.654;2023-05-20T03:27:17;95392.56;;;6.98;100.00
44297;BME280;51842;47.450;8.654;2023-05-20T03:29:43;95383.22;;;6.90;100.00
44297;BME280;51842;47.450;8.654;2023-05-20T03:32:09;95390.53;;;6.83;100.00
44297;BME280;51842;47.450;8.654;2023-05-20T03:34:35;95391.34;;;6.84;100.00
44297;BME280;51842;47.450;8.654;2023-05-20T03:37:01;95388.13;;;6.82;100.00
44297;BME280;51842;47.450;8.654;2023-05-20T03:39:26;95389.91;;;6.76;100.00
44297;BME280;51842;47.450;8.654;2023-05-20T03:41:52;95387.75;;;6.73;100.00
44297;BME280;51842;47.450;8.654;2023-05-20T03:44:18;95384.78;;;6.69;100.00
44297;BME280;51842;47.450;8.654;2023-05-20T03:46:44;95388.97;;;6.65;100.00
44297;BME280;51842;47.450;8.654;2023-05-20T03:49:10;95383.28;;;6.57;100.00
44297;BME280;51842;47.450;8.654;2023-05-20T03:51:36;95381.88;;;6.49;100.00
44297;BME280;51842;47.450;8.654;2023-05-20T03:54:01;95387.16;;;6.49;100.00
44297;BME280;51842;47.450;8.654;2023-05-20T03:56:27;95383.56;;;6.55;100.00
44297;BME280;51842;47.450;8.654;2023-05-20T03:58:53;95387.00;;;6.56;100.00
44297;BME280;51842;47.450;8.654;2023-05-20T04:01:20;95396.78;;;6.55;100.00
44297;BME280;51842;47.450;8.654;2023-05-20T04:03:50;95389.56;;;6.51;100.00
44297;BME280;51842;47.450;8.654;2023-05-20T04:06:16;95394.63;;;6.52;100.00
44297;BME280;51842;47.450;8.654;2023-05-20T04:08:41;95394.06;;;6.50;100.00
44297;BME280;51842;47.450;8.654;2023-05-20T04:11:07;95392.53;;;6.54;100.00
44297;BME280;51842;47.450;8.654;2023-05-20T04:13:33;95391.72;;;6.54;100.00
44297;BME280;51842;47.450;8.654;2023-05-20T04:15:58;95387.53;;;6.58;100.00
44297;BME280;51842;47.450;8.654;2023-05-20T04:18:26;95387.88;;;6.61;100.00
44297;BME280;51842;47.450;8.654;2023-05-20T04:20:54;95388.19;;;6.65;100.00
44297;BME280;51842;47.450;8.654;2023-05-20T04:23:26;95394.31;;;6.70;100.00
44297;BME280;51842;47.450;8.654;2023-05-20T04:25:51;95394.97;;;6.78;100.00
44297;BME280;51842;47.450;8.654;2023-05-20T04:28:17;95400.88;;;6.85;100.00
44297;BME280;51842;47.450;8.654;2023-05-20T04:30:43;95399.91;;;6.91;100.00
44297;BME280;51842;47.450;8.654;2023-05-20T04:33:10;95392.56;;;6.98;100.00
44297;BME280;51842;47.450;8.654;2023-05-20T04:35:36;95398.81;;;7.09;100.00
44297;BME280;51842;47.450;8.654;2023-05-20T04:38:02;95388.81;;;7.16;100.00
44297;BME280;51842;47.450;8.654;2023-05-20T04:40:28;95389.72;;;7.27;100.00
44297;BME280;51842;47.450;8.654;2023-05-20T04:42:54;95390.88;;;7.36;100.00
44297;BME280;51842;47.450;8.654;2023-05-20T04:45:20;95393.91;;;7.45;100.00
44297;BME280;51842;47.450;8.654;2023-05-20T04:47:47;95400.34;;;7.54;100.00
44297;BME280;51842;47.450;8.654;2023-05-20T04:50:13;95403.66;;;7.66;100.00
44297;BME280;51842;47.450;8.654;2023-05-20T04:52:39;95398.22;;;7.78;100.00
44297;BME280;51842;47.450;8.654;2023-05-20T04:55:08;95386.13;;;7.92;100.00
44297;BME280;51842;47.450;8.654;2023-05-20T04:57:35;95378.31;;;8.07;100.00
44297;BME280;51842;47.450;8.654;2023-05-20T05:00:04;95379.22;;;8.23;100.00
44297;BME280;51842;47.450;8.654;2023-05-20T05:02:33;95388.69;;;8.41;100.00
44297;BME280;51842;47.450;8.654;2023-05-20T05:04:59;95380.31;;;8.60;100.00
44297;BME280;51842;47.450;8.654;2023-05-20T05:07:24;95387.84;;;8.78;100.00
44297;BME280;51842;47.450;8.654;2023-05-20T05:09:50;95390.59;;;8.93;100.00
44297;BME280;51842;47.450;8.654;2023-05-20T05:12:16;95382.94;;;9.07;100.00
44297;BME280;51842;47.450;8.654;2023-05-20T05:14:42;95383.53;;;9.24;100.00
44297;BME280;51842;47.450;8.654;2023-05-20T05:17:08;95383.03;;;9.43;100.00
44297;BME280;51842;47.450;8.654;2023-05-20T05:19:33;95391.34;;;9.62;100.00
44297;BME280;51842;47.450;8.654;2023-05-20T05:21:59;95385.53;;;9.80;100.00
44297;BME280;51842;47.450;8.654;2023-05-20T05:24:25;95381.28;;;9.94;100.00
44297;BME280;51842;47.450;8.654;2023-05-20T05:26:54;95381.56;;;10.08;100.00
44297;BME280;51842;47.450;8.654;2023-05-20T05:29:21;95371.19;;;10.22;100.00
44297;BME280;51842;47.450;8.654;2023-05-20T05:31:47;95376.25;;;10.34;100.00
44297;BME280;51842;47.450;8.654;2023-05-20T05:34:13;95383.19;;;10.45;100.00
44297;BME280;51842;47.450;8.654;2023-05-20T05:36:39;95381.56;;;10.59;100.00
44297;BME280;51842;47.450;8.654;2023-05-20T05:39:06;95375.66;;;10.78;100.00
44297;BME280;51842;47.450;8.654;2023-05-20T05:41:31;95368.44;;;10.88;100.00
44297;BME280;51842;47.450;8.654;2023-05-20T05:43:58;95364.41;;;11.01;100.00
44297;BME280;51842;47.450;8.654;2023-05-20T05:46:24;95370.47;;;11.12;100.00
44297;BME280;51842;47.450;8.654;2023-05-20T05:48:50;95360.84;;;11.26;100.00
44297;BME280;51842;47.450;8.654;2023-05-20T05:51:16;95358.69;;;11.28;97.38
44297;BME280;51842;47.450;8.654;2023-05-20T05:53:42;95372.31;;;11.22;95.51
44297;BME280;51842;47.450;8.654;2023-05-20T05:56:09;95378.91;;;11.40;95.26
44297;BME280;51842;47.450;8.654;2023-05-20T05:58:35;95377.25;;;11.49;93.99
44297;BME280;51842;47.450;8.654;2023-05-20T06:01:00;95377.22;;;11.54;93.54
44297;BME280;51842;47.450;8.654;2023-05-20T06:03:26;95373.97;;;11.62;91.65
44297;BME280;51842;47.450;8.654;2023-05-20T06:05:54;95385.72;;;11.61;92.92
44297;BME280;51842;47.450;8.654;2023-05-20T06:08:20;95386.44;;;11.77;92.50
44297;BME280;51842;47.450;8.654;2023-05-20T06:10:49;95389.88;;;11.82;90.34
44297;BME280;51842;47.450;8.654;2023-05-20T06:13:15;95374.41;;;11.79;90.65
44297;BME280;51842;47.450;8.654;2023-05-20T06:15:42;95369.31;;;11.88;90.07
44297;BME280;51842;47.450;8.654;2023-05-20T06:18:08;95371.38;;;11.96;90.67
44297;BME280;51842;47.450;8.654;2023-05-20T06:20:34;95371.59;;;11.61;91.63
44297;BME280;51842;47.450;8.654;2023-05-20T06:23:00;95376.78;;;11.81;92.04
44297;BME280;51842;47.450;8.654;2023-05-20T06:25:26;95363.97;;;11.88;91.74
44297;BME280;51842;47.450;8.654;2023-05-20T06:27:52;95358.09;;;11.91;91.49
44297;BME280;51842;47.450;8.654;2023-05-20T06:30:18;95350.53;;;12.03;90.71
44297;BME280;51842;47.450;8.654;2023-05-20T06:32:45;95350.72;;;12.12;89.98
44297;BME280;51842;47.450;8.654;2023-05-20T06:35:11;95341.56;;;12.18;90.21
44297;BME280;51842;47.450;8.654;2023-05-20T06:37:37;95339.31;;;12.36;89.21
44297;BME280;51842;47.450;8.654;2023-05-20T06:40:04;95335.94;;;12.54;88.30
44297;BME280;51842;47.450;8.654;2023-05-20T06:42:29;95329.88;;;12.43;89.22
44297;BME280;51842;47.450;8.654;2023-05-20T06:44:55;95332.00;;;12.70;88.56
44297;BME280;51842;47.450;8.654;2023-05-20T06:47:21;95330.22;;;12.85;88.20
44297;BME280;51842;47.450;8.654;2023-05-20T06:49:47;95332.28;;;12.93;87.42
44297;BME280;51842;47.450;8.654;2023-05-20T06:52:12;95330.97;;;13.14;86.32
44297;BME280;51842;47.450;8.654;2023-05-20T06:54:38;95331.13;;;13.23;84.53
44297;BME280;51842;47.450;8.654;2023-05-20T06:57:07;95350.69;;;13.18;85.39
44297;BME280;51842;47.450;8.654;2023-05-20T06:59:37;95349.31;;;13.26;83.87
44297;BME280;51842;47.450;8.654;2023-05-20T07:02:03;95351.56;;;13.38;83.97
44297;BME280;51842;47.450;8.654;2023-05-20T07:04:30;95347.63;;;13.06;84.27
44297;BME280;51842;47.450;8.654;2023-05-20T07:06:55;95344.91;;;12.87;86.27
44297;BME280;51842;47.450;8.654;2023-05-20T07:09:21;95338.91;;;13.25;85.22
44297;BME280;51842;47.450;8.654;2023-05-20T07:11:47;95341.28;;;13.26;84.54
44297;BME280;51842;47.450;8.654;2023-05-20T07:14:13;95341.56;;;13.25;83.78
44297;BME280;51842;47.450;8.654;2023-05-20T07:16:38;95338.47;;;13.12;83.74
44297;BME280;51842;47.450;8.654;2023-05-20T07:19:04;95338.84;;;12.82;87.64
44297;BME280;51842;47.450;8.654;2023-05-20T07:21:30;95352.88;;;12.92;86.74
44297;BME280;51842;47.450;8.654;2023-05-20T07:23:56;95343.81;;;13.12;86.63
44297;BME280;51842;47.450;8.654;2023-05-20T07:26:22;95338.91;;;13.25;86.35
44297;BME280;51842;47.450;8.654;2023-05-20T07:28:47;95341.44;;;13.35;84.60
44297;BME280;51842;47.450;8.654;2023-05-20T07:31:13;95338.06;;;13.24;85.59
44297;BME280;51842;47.450;8.654;2023-05-20T07:33:39;95338.94;;;13.19;85.77
44297;BME280;51842;47.450;8.654;2023-05-20T07:36:05;95336.38;;;13.33;85.32
44297;BME280;51842;47.450;8.654;2023-05-20T07:38:31;95333.88;;;12.94;87.02
44297;BME280;51842;47.450;8.654;2023-05-20T07:40:57;95325.41;;;13.11;86.53
44297;BME280;51842;47.450;8.654;2023-05-20T07:43:23;95324.19;;;13.22;85.42
44297;BME280;51842;47.450;8.654;2023-05-20T07:45:48;95328.66;;;13.08;86.36
44297;BME280;51842;47.450;8.654;2023-05-20T07:48:15;95331.13;;;13.23;85.39
44297;BME280;51842;47.450;8.654;2023-05-20T07:50:41;95329.59;;;13.41;86.29
44297;BME280;51842;47.450;8.654;2023-05-20T07:53:06;95327.50;;;13.57;83.86
44297;BME280;51842;47.450;8.654;2023-05-20T07:55:34;95330.84;;;13.68;83.34
44297;BME280;51842;47.450;8.654;2023-05-20T07:58:00;95321.91;;;13.72;83.08
44297;BME280;51842;47.450;8.654;2023-05-20T08:00:26;95327.50;;;13.76;83.08
44297;BME280;51842;47.450;8.654;2023-05-20T08:02:52;95329.25;;;13.67;83.76
44297;BME280;51842;47.450;8.654;2023-05-20T08:05:17;95326.47;;;13.53;85.20
44297;BME280;51842;47.450;8.654;2023-05-20T08:07:43;95319.81;;;13.69;84.46
44297;BME280;51842;47.450;8.654;2023-05-20T08:10:10;95317.59;;;13.76;83.64
44297;BME280;51842;47.450;8.654;2023-05-20T08:12:36;95319.91;;;13.64;84.39
44297;BME280;51842;47.450;8.654;2023-05-20T08:15:02;95316.44;;;13.82;85.04
44297;BME280;51842;47.450;8.654;2023-05-20T08:17:28;95317.84;;;13.94;83.74
44297;BME280;51842;47.450;8.654;2023-05-20T08:19:54;95315.34;;;13.64;84.78
44297;BME280;51842;47.450;8.654;2023-05-20T08:22:20;95308.81;;;13.89;84.03
44297;BME280;51842;47.450;8.654;2023-05-20T08:24:46;95305.19;;;13.99;83.95
44297;BME280;51842;47.450;8.654;2023-05-20T08:27:11;95309.91;;;13.88;83.11
44297;BME280;51842;47.450;8.654;2023-05-20T08:29:37;95299.19;;;14.21;83.29
44297;BME280;51842;47.450;8.654;2023-05-20T08:32:03;95312.44;;;14.45;81.11
44297;BME280;51842;47.450;8.654;2023-05-20T08:34:29;95316.56;;;14.24;81.13
44297;BME280;51842;47.450;8.654;2023-05-20T08:36:55;95314.94;;;14.09;83.12
44297;BME280;51842;47.450;8.654;2023-05-20T08:39:22;95309.53;;;14.28;81.73
44297;BME280;51842;47.450;8.654;2023-05-20T08:41:48;95310.88;;;14.11;82.80
44297;BME280;51842;47.450;8.654;2023-05-20T08:44:17;95321.81;;;14.15;82.79
44297;BME280;51842;47.450;8.654;2023-05-20T08:46:44;95319.28;;;14.05;82.11
44297;BME280;51842;47.450;8.654;2023-05-20T08:49:11;95306.56;;;14.29;82.77
44297;BME280;51842;47.450;8.654;2023-05-20T08:51:38;95304.75;;;14.57;81.16
44297;BME280;51842;47.450;8.654;2023-05-20T08:54:07;95309.44;;;14.79;79.92
44297;BME280;51842;47.450;8.654;2023-05-20T08:56:34;95297.63;;;14.80;79.19
44297;BME280;51842;47.450;8.654;2023-05-20T08:59:02;95300.97;;;14.72;78.92
44297;BME280;51842;47.450;8.654;2023-05-20T09:01:28;95302.75;;;14.63;79.63
44297;BME280;51842;47.450;8.654;2023-05-20T09:03:54;95311.22;;;14.70;79.12
44297;BME280;51842;47.450;8.654;2023-05-20T09:06:20;95301.56;;;14.69;78.72
44297;BME280;51842;47.450;8.654;2023-05-20T09:08:48;95307.34;;;14.76;79.04
44297;BME280;51842;47.450;8.654;2023-05-20T09:11:15;95300.19;;;14.99;78.60
44297;BME280;51842;47.450;8.654;2023-05-20T09:13:41;95286.53;;;15.37;77.46
44297;BME280;51842;47.450;8.654;2023-05-20T09:16:09;95303.47;;;15.60;75.63
44297;BME280;51842;47.450;8.654;2023-05-20T09:18:38;95292.84;;;15.55;75.25
44297;BME280;51842;47.450;8.654;2023-05-20T09:21:05;95294.19;;;15.80;75.31
44297;BME280;51842;47.450;8.654;2023-05-20T09:23:37;95294.31;;;15.98;74.32
44297;BME280;51842;47.450;8.654;2023-05-20T09:26:03;95293.16;;;15.90;74.75
44297;BME280;51842;47.450;8.654;2023-05-20T09:28:29;95291.50;;;16.03;74.08
44297;BME280;51842;47.450;8.654;2023-05-20T09:30:58;95288.56;;;15.90;73.72
44297;BME280;51842;47.450;8.654;2023-05-20T09:33:29;95303.78;;;16.17;72.51
44297;BME280;51842;47.450;8.654;2023-05-20T09:36:09;95293.63;;;16.37;71.69
44297;BME280;51842;47.450;8.654;2023-05-20T09:38:38;95305.47;;;16.36;70.66
44297;BME280;51842;47.450;8.654;2023-05-20T09:41:12;95308.13;;;16.05;71.31
44297;BME280;51842;47.450;8.654;2023-05-20T09:43:41;95300.59;;;15.70;73.87
44297;BME280;51842;47.450;8.654;2023-05-20T09:46:07;95302.19;;;15.94;72.84
44297;BME280;51842;47.450;8.654;2023-05-20T09:48:37;95289.91;;;15.43;74.64
44297;BME280;51842;47.450;8.654;2023-05-20T09:51:05;95290.97;;;15.56;73.66
44297;BME280;51842;47.450;8.654;2023-05-20T09:53:32;95278.88;;;16.03;74.00
44297;BME280;51842;47.450;8.654;2023-05-20T09:55:58;95289.88;;;16.47;72.38
44297;BME280;51842;47.450;8.654;2023-05-20T09:58:26;95292.00;;;16.58;70.37
44297;BME280;51842;47.450;8.654;2023-05-20T10:00:53;95290.09;;;16.59;70.50
44297;BME280;51842;47.450;8.654;2023-05-20T10:03:22;95287.06;;;16.52;72.19
44297;BME280;51842;47.450;8.654;2023-05-20T10:09:31;95277.63;;;17.03;69.16
44297;BME280;51842;47.450;8.654;2023-05-20T10:12:18;95284.81;;;16.76;70.35
44297;BME280;51842;47.450;8.654;2023-05-20T10:15:42;95278.84;;;16.88;68.91
44297;BME280;51842;47.450;8.654;2023-05-20T10:21:22;95280.72;;;16.79;69.77
44297;BME280;51842;47.450;8.654;2023-05-20T10:23:50;95275.59;;;16.69;70.87
44297;BME280;51842;47.450;8.654;2023-05-20T10:26:17;95265.69;;;16.15;70.94
44297;BME280;51842;47.450;8.654;2023-05-20T10:28:43;95267.69;;;16.41;71.13
44297;BME280;51842;47.450;8.654;2023-05-20T10:31:20;95281.53;;;16.57;69.28
44297;BME280;51842;47.450;8.654;2023-05-20T10:33:48;95286.25;;;16.82;68.29
44297;BME280;51842;47.450;8.654;2023-05-20T10:36:26;95293.88;;;16.89;67.89
44297;BME280;51842;47.450;8.654;2023-05-20T10:38:58;95289.16;;;16.95;67.05
44297;BME280;51842;47.450;8.654;2023-05-20T10:41:27;95278.25;;;17.00;68.04
44297;BME280;51842;47.450;8.654;2023-05-20T10:44:04;95278.00;;;16.79;68.28
44297;BME280;51842;47.450;8.654;2023-05-20T10:46:32;95276.31;;;16.92;67.43
44297;BME280;51842;47.450;8.654;2023-05-20T10:49:01;95280.00;;;16.96;67.42
44297;BME280;51842;47.450;8.654;2023-05-20T10:51:28;95284.91;;;17.02;68.36
44297;BME280;51842;47.450;8.654;2023-05-20T10:53:56;95284.13;;;17.02;67.10
44297;BME280;51842;47.450;8.654;2023-05-20T10:56:25;95282.81;;;16.59;67.95
44297;BME280;51842;47.450;8.654;2023-05-20T10:58:53;95289.59;;;16.57;68.30
44297;BME280;51842;47.450;8.654;2023-05-20T11:01:25;95281.09;;;16.32;69.37
44297;BME280;51842;47.450;8.654;2023-05-20T11:03:54;95277.28;;;16.56;70.25
44297;BME280;51842;47.450;8.654;2023-05-20T11:06:26;95269.59;;;16.72;68.71
44297;BME280;51842;47.450;8.654;2023-05-20T11:08:53;95265.19;;;16.76;67.93
44297;BME280;51842;47.450;8.654;2023-05-20T11:11:19;95263.97;;;16.91;68.05
44297;BME280;51842;47.450;8.654;2023-05-20T11:13:50;95262.41;;;16.90;68.46
44297;BME280;51842;47.450;8.654;2023-05-20T11:16:19;95255.41;;;16.80;68.19
44297;BME280;51842;47.450;8.654;2023-05-20T11:18:48;95258.63;;;16.59;69.64
44297;BME280;51842;47.450;8.654;2023-05-20T11:21:15;95266.84;;;16.63;69.62
44297;BME280;51842;47.450;8.654;2023-05-20T11:23:41;95263.69;;;16.61;68.63
44297;BME280;51842;47.450;8.654;2023-05-20T11:26:07;95265.00;;;16.72;69.31
44297;BME280;51842;47.450;8.654;2023-05-20T11:28:34;95272.72;;;16.34;69.93
44297;BME280;51842;47.450;8.654;2023-05-20T11:31:00;95265.56;;;16.21;70.58
44297;BME280;51842;47.450;8.654;2023-05-20T11:33:26;95265.00;;;16.41;70.75
44297;BME280;51842;47.450;8.654;2023-05-20T11:35:53;95271.06;;;16.47;70.60
44297;BME280;51842;47.450;8.654;2023-05-20T11:38:20;95262.09;;;16.60;69.44
44297;BME280;51842;47.450;8.654;2023-05-20T11:40:54;95275.38;;;16.56;70.55
44297;BME280;51842;47.450;8.654;2023-05-20T11:43:22;95267.13;;;16.84;68.25
44297;BME280;51842;47.450;8.654;2023-05-20T11:45:56;95257.69;;;17.04;68.53
44297;BME280;51842;47.450;8.654;2023-05-20T11:48:25;95255.34;;;17.28;66.99
44297;BME280;51842;47.450;8.654;2023-05-20T11:50:54;95246.00;;;17.26;66.34
44297;BME280;51842;47.450;8.654;2023-05-20T11:53:22;95253.63;;;17.41;66.21
44297;BME280;51842;47.450;8.654;2023-05-20T11:56:00;95258.06;;;17.63;65.15
44297;BME280;51842;47.450;8.654;2023-05-20T11:58:30;95255.69;;;17.53;64.93
44297;BME280;51842;47.450;8.654;2023-05-20T12:00:57;95248.56;;;17.57;65.11
44297;BME280;51842;47.450;8.654;2023-05-20T12:03:23;95256.97;;;17.47;64.94
44297;BME280;51842;47.450;8.654;2023-05-20T12:05:49;95254.91;;;17.44;65.63
44297;BME280;51842;47.450;8.654;2023-05-20T12:08:17;95258.38;;;17.35;65.21
44297;BME280;51842;47.450;8.654;2023-05-20T12:10:43;95246.03;;;17.52;65.15
44297;BME280;51842;47.450;8.654;2023-05-20T12:13:12;95249.97;;;17.54;64.33
44297;BME280;51842;47.450;8.654;2023-05-20T12:15:38;95252.88;;;17.58;65.81
44297;BME280;51842;47.450;8.654;2023-05-20T12:18:04;95245.53;;;17.67;65.37
44297;BME280;51842;47.450;8.654;2023-05-20T12:20:31;95249.69;;;17.82;64.93
44297;BME280;51842;47.450;8.654;2023-05-20T12:22:59;95247.34;;;17.80;63.86
44297;BME280;51842;47.450;8.654;2023-05-20T12:25:26;95257.28;;;17.54;63.62
44297;BME280;51842;47.450;8.654;2023-05-20T12:27:52;95253.97;;;17.66;64.76
44297;BME280;51842;47.450;8.654;2023-05-20T12:30:20;95236.19;;;17.73;64.43
44297;BME280;51842;47.450;8.654;2023-05-20T12:32:48;95238.56;;;18.01;63.89
44297;BME280;51842;47.450;8.654;2023-05-20T12:35:37;95237.47;;;18.02;63.36
44297;BME280;51842;47.450;8.654;2023-05-20T12:38:04;95238.59;;;17.75;63.28
44297;BME280;51842;47.450;8.654;2023-05-20T12:40:30;95238.13;;;17.82;64.21
44297;BME280;51842;47.450;8.654;2023-05-20T12:42:55;95237.47;;;17.76;64.82
44297;BME280;51842;47.450;8.654;2023-05-20T12:45:21;95231.16;;;17.80;64.70
44297;BME280;51842;47.450;8.654;2023-05-20T12:47:47;95238.44;;;17.97;64.74
44297;BME280;51842;47.450;8.654;2023-05-20T12:50:13;95233.69;;;17.94;64.06
44297;BME280;51842;47.450;8.654;2023-05-20T12:52:39;95232.38;;;18.18;63.51
44297;BME280;51842;47.450;8.654;2023-05-20T12:55:05;95215.84;;;18.28;63.01
44297;BME280;51842;47.450;8.654;2023-05-20T12:57:45;95216.97;;;18.65;61.83
44297;BME280;51842;47.450;8.654;2023-05-20T13:00:12;95208.16;;;18.86;61.43
44297;BME280;51842;47.450;8.654;2023-05-20T13:02:40;95209.19;;;19.02;60.83
44297;BME280;51842;47.450;8.654;2023-05-20T13:05:06;95211.28;;;18.97;59.63
44297;BME280;51842;47.450;8.654;2023-05-20T13:07:32;95217.75;;;18.75;60.88